createdAt,value
2018-08-04T00:04:00.039Z,28.00
2018-08-04T00:09:04.947Z,27.90
2018-08-04T00:14:09.491Z,27.90
2018-08-04T00:19:13.041Z,27.70
2018-08-04T00:24:16.582Z,27.70
2018-08-04T00:29:20.898Z,27.80
2018-08-04T00:34:24.429Z,27.80
2018-08-04T00:39:27.963Z,27.70
2018-08-04T00:44:31.521Z,27.50
2018-08-04T00:49:35.110Z,27.40
2018-08-04T00:54:39.600Z,27.30
2018-08-04T00:59:51.430Z,27.20
2018-08-04T01:04:54.983Z,27.20
2018-08-04T01:10:01.443Z,27.10
2018-08-04T01:15:05.266Z,27.10
2018-08-04T01:20:08.911Z,27.10
2018-08-04T01:25:12.474Z,27.00
2018-08-04T01:30:16.543Z,26.90
2018-08-04T01:35:20.077Z,26.90
2018-08-04T01:40:23.956Z,26.90
2018-08-04T01:45:28.140Z,26.90
2018-08-04T01:50:32.525Z,26.90
2018-08-04T01:55:36.091Z,26.80
2018-08-04T02:00:40.469Z,26.80
2018-08-04T02:05:44.024Z,26.70
2018-08-04T02:10:47.950Z,26.70
2018-08-04T02:15:51.487Z,26.70
2018-08-04T02:20:55.727Z,26.60
2018-08-04T02:25:59.867Z,26.50
2018-08-04T02:31:03.508Z,26.30
2018-08-04T02:36:07.098Z,26.20
2018-08-04T02:41:11.015Z,26.20
2018-08-04T02:46:14.735Z,26.10
2018-08-04T02:51:18.319Z,26.00
2018-08-04T02:56:25.315Z,25.90
2018-08-04T03:01:29.295Z,25.80
2018-08-04T03:06:32.830Z,25.70
2018-08-04T03:11:36.434Z,25.60
2018-08-04T03:16:40.251Z,25.50
2018-08-04T03:21:43.826Z,25.40
2018-08-04T03:26:47.486Z,25.30
2018-08-04T03:31:51.879Z,25.30
2018-08-04T03:36:55.478Z,25.20
2018-08-04T03:41:59.056Z,25.20
2018-08-04T03:47:02.695Z,25.20
2018-08-04T03:52:06.242Z,25.20
2018-08-04T03:57:09.913Z,25.20
2018-08-04T04:02:13.477Z,25.10
2018-08-04T04:07:17.950Z,25.00
2018-08-04T04:12:21.498Z,24.90
2018-08-04T04:17:25.268Z,24.80
2018-08-04T04:22:28.834Z,24.80
2018-08-04T04:27:32.371Z,24.80
2018-08-04T04:32:35.896Z,24.80
2018-08-04T04:37:39.461Z,24.80
2018-08-04T04:42:43.008Z,24.80
2018-08-04T04:47:46.592Z,24.80
2018-08-04T04:52:51.659Z,24.70
2018-08-04T04:57:55.330Z,24.70
2018-08-04T05:02:58.919Z,24.80
2018-08-04T05:08:02.600Z,24.90
2018-08-04T05:13:07.707Z,25.00
2018-08-04T05:18:11.342Z,25.00
2018-08-04T05:23:15.044Z,25.00
2018-08-04T05:28:19.331Z,25.20
2018-08-04T05:33:22.904Z,25.30
2018-08-04T05:38:26.460Z,25.40
2018-08-04T05:43:30.072Z,25.50
2018-08-04T05:48:33.603Z,25.60
2018-08-04T05:53:38.152Z,25.80
2018-08-04T05:58:41.720Z,26.00
2018-08-04T06:03:45.340Z,26.20
2018-08-04T06:08:48.894Z,26.40
2018-08-04T06:13:52.454Z,26.50
2018-08-04T06:18:56.086Z,26.70
2018-08-04T06:24:00.523Z,26.80
2018-08-04T06:29:04.663Z,27.00
2018-08-04T06:34:08.269Z,27.00
2018-08-04T06:39:11.902Z,27.10
2018-08-04T06:44:16.055Z,27.20
2018-08-04T06:49:19.643Z,27.40
2018-08-04T06:54:23.609Z,27.50
2018-08-04T06:59:28.891Z,27.50
2018-08-04T07:04:33.128Z,27.50
2018-08-04T07:14:51.751Z,27.70
2018-08-04T07:19:55.267Z,27.50
2018-08-04T07:24:58.863Z,27.40
2018-08-04T07:30:07.847Z,27.50
2018-08-04T07:35:11.454Z,27.60
2018-08-04T07:40:15.202Z,27.80
2018-08-04T07:45:19.448Z,27.80
2018-08-04T07:50:22.996Z,27.90
2018-08-04T07:55:26.602Z,28.10
2018-08-04T08:00:30.167Z,28.20
2018-08-04T08:05:33.719Z,28.30
2018-08-04T08:10:37.634Z,28.50
2018-08-04T08:15:41.112Z,28.70
2018-08-04T08:20:44.675Z,28.80
2018-08-04T08:25:59.315Z,28.90
2018-08-04T08:31:03.187Z,29.00
2018-08-04T08:36:07.272Z,29.30
2018-08-04T08:41:11.125Z,29.30
2018-08-04T08:46:14.731Z,29.50
2018-08-04T08:51:18.306Z,29.90
2018-08-04T08:56:21.874Z,29.90
2018-08-04T09:01:25.606Z,29.90
2018-08-04T09:06:29.206Z,30.00
2018-08-04T09:11:32.790Z,30.30
2018-08-04T09:16:36.332Z,30.30
2018-08-04T09:21:40.847Z,30.60
2018-08-04T09:26:44.403Z,31.20
2018-08-04T09:31:47.963Z,31.50
2018-08-04T09:36:51.516Z,31.20
2018-08-04T09:41:55.400Z,30.80
2018-08-04T09:46:59.339Z,30.90
2018-08-04T09:52:02.875Z,31.00
2018-08-04T09:57:07.363Z,31.10
2018-08-04T10:02:12.983Z,31.10
2018-08-04T10:07:16.543Z,31.20
2018-08-04T10:12:20.339Z,31.60
2018-08-04T10:17:23.881Z,31.90
2018-08-04T10:22:27.682Z,32.20
2018-08-04T10:27:31.235Z,32.50
2018-08-04T10:32:35.188Z,32.70
2018-08-04T10:37:38.939Z,32.80
2018-08-04T10:42:42.506Z,33.10
2018-08-04T10:47:46.103Z,33.30
2018-08-04T10:52:49.738Z,33.40
2018-08-04T10:57:53.299Z,33.70
2018-08-04T11:02:56.853Z,34.00
2018-08-04T11:08:00.673Z,34.20
2018-08-04T11:13:04.288Z,34.00
2018-08-04T11:18:08.713Z,33.90
2018-08-04T11:23:13.687Z,33.80
2018-08-04T11:28:17.531Z,34.20
2018-08-04T11:33:22.515Z,34.50
2018-08-04T11:38:26.146Z,34.60
2018-08-04T11:43:29.746Z,34.90
2018-08-04T11:48:33.328Z,34.90
2018-08-04T11:58:40.139Z,35.70
2018-08-04T12:03:44.219Z,35.90
2018-08-04T12:08:48.047Z,36.40
2018-08-04T12:13:51.785Z,36.30
2018-08-04T12:18:55.371Z,35.80
2018-08-04T12:23:58.922Z,35.20
2018-08-04T12:29:03.350Z,34.80
2018-08-04T12:34:07.410Z,34.50
2018-08-04T12:39:12.139Z,34.30
2018-08-04T12:44:15.946Z,34.20
2018-08-04T12:49:19.565Z,34.00
2018-08-04T12:54:23.759Z,34.20
2018-08-04T12:59:27.544Z,34.30
2018-08-04T13:04:31.215Z,34.60
2018-08-04T13:09:34.917Z,34.90
2018-08-04T13:14:38.667Z,35.20
2018-08-04T13:19:43.015Z,35.50
2018-08-04T13:24:46.590Z,35.80
2018-08-04T13:29:50.151Z,36.20
2018-08-04T13:34:54.171Z,36.10
2018-08-04T13:40:06.306Z,36.30
2018-08-04T13:45:09.887Z,36.60
2018-08-04T13:50:13.434Z,36.70
2018-08-04T13:55:17.798Z,36.50
2018-08-04T14:00:21.350Z,36.50
2018-08-04T14:05:24.908Z,36.50
2018-08-04T14:10:28.444Z,36.70
2018-08-04T14:15:32.121Z,36.60
2018-08-04T14:20:40.687Z,36.80
2018-08-04T14:25:44.226Z,36.90
2018-08-04T14:30:47.885Z,36.80
2018-08-04T14:35:52.135Z,36.70
2018-08-04T14:40:56.097Z,36.70
2018-08-04T14:45:59.975Z,36.70
2018-08-04T14:51:03.697Z,37.00
2018-08-04T14:56:07.251Z,37.70
2018-08-04T15:01:10.791Z,37.90
2018-08-04T15:06:14.379Z,37.90
2018-08-04T15:11:18.731Z,38.00
2018-08-04T15:16:22.541Z,37.50
2018-08-04T15:21:26.364Z,37.40
2018-08-04T15:26:30.434Z,36.80
2018-08-04T15:31:34.389Z,36.50
2018-08-04T15:36:38.626Z,36.70
2018-08-04T15:41:42.511Z,37.30
2018-08-04T15:46:46.076Z,37.30
2018-08-04T15:51:49.620Z,37.30
2018-08-04T15:56:53.199Z,37.40
2018-08-04T16:01:56.737Z,37.70
2018-08-04T16:07:00.290Z,37.60
2018-08-04T16:12:04.507Z,37.20
2018-08-04T16:17:08.314Z,36.90
2018-08-04T16:22:11.859Z,37.00
2018-08-04T16:27:15.494Z,37.10
2018-08-04T16:32:19.026Z,37.70
2018-08-04T16:37:22.597Z,38.00
2018-08-04T16:42:26.167Z,38.30
2018-08-04T16:47:30.424Z,37.70
2018-08-04T16:52:34.085Z,37.60
2018-08-04T16:57:37.673Z,37.50
2018-08-04T17:02:42.146Z,37.40
2018-08-04T17:07:45.682Z,37.00
2018-08-04T17:12:49.224Z,36.70
2018-08-04T17:17:52.943Z,36.50
2018-08-04T17:22:56.543Z,36.20
2018-08-04T17:28:00.105Z,35.90
2018-08-04T17:33:03.662Z,35.30
2018-08-04T17:38:07.589Z,34.60
2018-08-04T17:43:11.762Z,34.30
2018-08-04T17:48:15.931Z,33.90
2018-08-04T17:53:19.504Z,33.60
2018-08-04T17:58:23.107Z,33.10
2018-08-04T18:03:31.012Z,33.10
2018-08-04T18:08:34.600Z,33.30
2018-08-04T18:13:38.323Z,33.50
2018-08-04T18:18:41.978Z,33.50
2018-08-04T18:23:46.061Z,33.50
2018-08-04T18:28:50.260Z,33.60
2018-08-04T18:33:54.740Z,33.60
2018-08-04T18:38:58.839Z,33.70
2018-08-04T18:44:03.037Z,33.60
2018-08-04T18:49:07.649Z,33.50
2018-08-04T18:54:12.468Z,33.30
2018-08-04T18:59:17.544Z,33.20
2018-08-04T19:04:22.989Z,33.10
2018-08-04T19:09:40.601Z,32.90
2018-08-04T19:14:44.827Z,32.90
2018-08-04T19:25:04.313Z,32.50
2018-08-04T19:30:13.473Z,32.40
2018-08-04T19:35:17.808Z,32.10
2018-08-04T19:40:21.725Z,32.00
2018-08-04T19:45:25.709Z,31.80
2018-08-04T19:50:30.561Z,31.70
2018-08-04T19:55:34.484Z,31.60
2018-08-04T20:00:38.824Z,31.50
2018-08-04T20:05:42.994Z,31.40
2018-08-04T20:10:47.347Z,31.30
2018-08-04T20:15:51.431Z,31.10
2018-08-04T20:21:21.872Z,30.90
2018-08-04T20:26:26.226Z,30.80
2018-08-04T20:31:30.262Z,30.60
2018-08-04T20:36:34.191Z,30.50
2018-08-04T20:41:38.626Z,30.40
2018-08-04T20:46:43.532Z,30.30
2018-08-04T20:51:47.822Z,30.20
2018-08-04T20:56:52.675Z,30.10
2018-08-04T21:02:02.440Z,30.00
2018-08-04T21:07:06.892Z,30.00
2018-08-04T21:12:12.808Z,30.00
2018-08-04T21:17:17.582Z,29.90
2018-08-04T21:22:24.358Z,29.70
2018-08-04T21:27:28.631Z,29.80
2018-08-04T21:32:32.833Z,29.70
2018-08-04T21:37:36.861Z,29.50
2018-08-04T21:42:42.998Z,29.30
2018-08-04T21:47:46.891Z,29.10
2018-08-04T21:52:50.801Z,28.90
2018-08-04T21:57:55.568Z,28.80
2018-08-04T22:03:03.727Z,28.70
2018-08-04T22:08:18.912Z,28.60
2018-08-04T22:13:24.080Z,28.50
2018-08-04T22:18:28.036Z,28.30
2018-08-04T22:23:32.446Z,28.20
2018-08-04T22:28:36.740Z,28.10
2018-08-04T22:33:41.221Z,28.00
2018-08-04T22:38:45.367Z,27.90
2018-08-04T22:43:49.411Z,27.80
2018-08-04T22:49:01.351Z,27.70
2018-08-04T22:54:05.447Z,27.70
2018-08-04T22:59:09.890Z,27.70
2018-08-04T23:04:14.782Z,27.70
2018-08-04T23:09:18.716Z,27.50
2018-08-04T23:14:22.705Z,27.40
2018-08-04T23:19:26.560Z,27.30
2018-08-04T23:24:31.213Z,27.50
2018-08-04T23:29:35.844Z,27.50
2018-08-04T23:34:40.169Z,27.40
2018-08-04T23:39:44.017Z,27.20
2018-08-04T23:44:48.826Z,27.10
2018-08-04T23:49:52.790Z,27.10
2018-08-04T23:54:57.223Z,27.10
